createdAt,value
2022-09-21T00:01:39.654Z,24.80
2022-09-21T00:04:08.344Z,27.30
2022-09-21T00:06:38.094Z,28.00
2022-09-21T00:09:08.510Z,24.30
2022-09-21T00:11:37.545Z,23.70
2022-09-21T00:14:10.853Z,24.10
2022-09-21T00:16:41.767Z,29.10
2022-09-21T00:19:12.174Z,21.30
2022-09-21T00:21:40.488Z,24.50
2022-09-21T00:24:08.891Z,25.50
2022-09-21T00:26:37.108Z,25.60
2022-09-21T00:29:05.664Z,22.70
2022-09-21T00:31:35.096Z,20.80
2022-09-21T00:34:08.006Z,25.30
2022-09-21T00:36:36.612Z,20.50
2022-09-21T00:39:05.533Z,23.40
2022-09-21T00:41:34.759Z,20.60
2022-09-21T00:44:32.259Z,20.90
2022-09-21T00:47:10.285Z,24.70
2022-09-21T00:49:40.150Z,22.10
2022-09-21T00:52:12.768Z,24.80
2022-09-21T00:54:56.651Z,23.60
2022-09-21T00:57:27.616Z,22.60
2022-09-21T00:59:59.329Z,26.50
2022-09-21T01:02:28.694Z,22.50
2022-09-21T01:04:57.517Z,23.60
2022-09-21T01:07:29.632Z,22.00
2022-09-21T01:10:02.756Z,22.00
2022-09-21T01:12:53.003Z,19.20
2022-09-21T01:15:43.065Z,20.80
2022-09-21T01:18:28.149Z,24.40
2022-09-21T01:21:14.714Z,22.30
2022-09-21T01:23:50.429Z,25.70
2022-09-21T01:26:31.176Z,17.10
2022-09-21T01:29:02.135Z,25.10
2022-09-21T01:32:10.496Z,19.10
2022-09-21T01:35:00.962Z,16.50
2022-09-21T01:37:42.351Z,19.90
2022-09-21T01:40:21.970Z,21.80
2022-09-21T01:42:52.528Z,17.60
2022-09-21T01:45:28.253Z,20.40
2022-09-21T01:47:59.759Z,20.20
2022-09-21T01:50:34.922Z,20.60
2022-09-21T01:55:50.196Z,17.10
2022-09-21T01:58:27.183Z,18.60
2022-09-21T02:00:58.174Z,21.60
2022-09-21T02:04:01.954Z,18.70
2022-09-21T02:06:32.149Z,19.00
2022-09-21T02:09:01.052Z,18.80
2022-09-21T02:11:29.393Z,20.30
2022-09-21T02:13:57.651Z,20.40
2022-09-21T02:16:46.102Z,19.20
2022-09-21T02:19:26.345Z,17.50
2022-09-21T02:22:14.924Z,18.40
2022-09-21T02:24:47.506Z,17.40
2022-09-21T02:27:39.744Z,19.30
2022-09-21T02:30:17.310Z,17.10
2022-09-21T02:33:04.229Z,18.70
2022-09-21T02:35:48.701Z,18.90
2022-09-21T02:38:58.275Z,19.80
2022-09-21T02:41:49.340Z,18.20
2022-09-21T02:44:32.790Z,19.50
2022-09-21T02:47:20.401Z,18.30
2022-09-21T02:49:55.129Z,20.20
2022-09-21T02:52:25.409Z,19.40
2022-09-21T02:54:55.832Z,19.80
2022-09-21T02:57:25.981Z,20.30
2022-09-21T02:59:54.204Z,19.60
2022-09-21T03:02:22.487Z,26.70
2022-09-21T03:04:50.878Z,20.40
2022-09-21T03:07:19.108Z,23.40
2022-09-21T03:09:47.413Z,24.20
2022-09-21T03:12:15.629Z,25.40
2022-09-21T03:14:44.067Z,21.60
2022-09-21T03:17:12.226Z,26.00
2022-09-21T03:19:40.915Z,24.90
2022-09-21T03:22:09.338Z,22.00
2022-09-21T03:24:46.891Z,23.30
2022-09-21T03:27:21.123Z,24.00
2022-09-21T03:29:49.980Z,25.00
2022-09-21T03:32:18.414Z,23.30
2022-09-21T03:34:46.718Z,23.90
2022-09-21T03:37:14.986Z,24.20
2022-09-21T03:39:43.332Z,22.40
2022-09-21T03:42:14.330Z,24.80
2022-09-21T03:44:43.193Z,22.80
2022-09-21T03:47:11.460Z,20.30
2022-09-21T03:49:39.657Z,23.30
2022-09-21T03:52:07.850Z,23.30
2022-09-21T03:54:36.226Z,24.00
2022-09-21T03:57:04.782Z,24.70
2022-09-21T03:59:32.981Z,21.80
2022-09-21T04:02:01.274Z,24.40
2022-09-21T04:04:29.510Z,25.50
2022-09-21T04:06:59.982Z,29.70
2022-09-21T04:09:28.261Z,26.70
2022-09-21T04:11:56.586Z,32.80
2022-09-21T04:14:25.189Z,29.10
2022-09-21T04:16:53.475Z,31.30
2022-09-21T04:19:22.758Z,31.50
2022-09-21T04:21:56.280Z,28.70
2022-09-21T04:24:24.606Z,31.40
2022-09-21T04:26:52.986Z,32.20
2022-09-21T04:29:21.704Z,28.40
2022-09-21T04:31:50.068Z,30.90
2022-09-21T04:34:18.363Z,30.10
2022-09-21T04:36:47.461Z,32.60
2022-09-21T04:39:15.781Z,31.40
2022-09-21T04:41:44.121Z,32.70
2022-09-21T04:44:12.332Z,31.90
2022-09-21T04:46:40.602Z,32.10
2022-09-21T04:49:09.010Z,32.80
2022-09-21T04:51:37.365Z,30.40
2022-09-21T04:54:06.910Z,27.90
2022-09-21T04:56:35.463Z,34.10
2022-09-21T04:59:04.682Z,31.60
2022-09-21T05:01:33.534Z,37.60
2022-09-21T05:04:03.181Z,29.80
2022-09-21T05:06:35.228Z,31.70
2022-09-21T05:09:22.577Z,31.80
2022-09-21T05:11:52.306Z,31.50
2022-09-21T05:14:20.578Z,29.40
2022-09-21T05:16:49.973Z,30.00
2022-09-21T05:19:18.284Z,31.40
2022-09-21T05:21:46.612Z,30.90
2022-09-21T05:24:14.938Z,30.70
2022-09-21T05:26:43.106Z,31.20
2022-09-21T05:29:11.669Z,31.00
2022-09-21T05:31:54.753Z,30.00
2022-09-21T05:34:41.837Z,30.60
2022-09-21T05:37:44.557Z,26.00
2022-09-21T05:40:14.210Z,24.50
2022-09-21T05:42:42.986Z,27.90
2022-09-21T05:45:15.767Z,27.40
2022-09-21T05:48:21.017Z,23.30
2022-09-21T05:50:59.493Z,27.30
2022-09-21T05:53:33.644Z,23.50
2022-09-21T05:56:24.678Z,24.60
2022-09-21T05:59:15.557Z,30.80
2022-09-21T06:01:55.857Z,24.80
2022-09-21T06:04:24.459Z,24.40
2022-09-21T06:06:52.885Z,26.40
2022-09-21T06:09:21.172Z,22.60
2022-09-21T06:11:49.965Z,24.30
2022-09-21T06:14:24.872Z,23.50
2022-09-21T06:16:53.243Z,22.20
2022-09-21T06:19:21.457Z,24.90
2022-09-21T06:21:49.717Z,25.70
2022-09-21T06:24:18.033Z,25.80
2022-09-21T06:26:46.234Z,24.10
2022-09-21T06:29:14.606Z,28.70
2022-09-21T06:31:42.869Z,26.70
2022-09-21T06:34:11.054Z,26.10
2022-09-21T06:36:39.300Z,27.40
2022-09-21T06:39:07.605Z,27.80
2022-09-21T06:41:35.767Z,29.90
2022-09-21T06:44:04.387Z,27.40
2022-09-21T06:46:32.761Z,29.40
2022-09-21T06:49:01.363Z,28.20
2022-09-21T06:51:29.681Z,27.50
2022-09-21T06:53:59.451Z,27.00
2022-09-21T06:56:27.778Z,23.30
2022-09-21T06:58:56.046Z,24.70
2022-09-21T07:01:27.394Z,26.10
2022-09-21T07:03:55.786Z,26.20
2022-09-21T07:06:24.234Z,21.80
2022-09-21T07:11:42.135Z,22.00
2022-09-21T07:14:10.378Z,23.70
2022-09-21T07:16:38.639Z,24.40
2022-09-21T07:19:10.947Z,26.00
2022-09-21T07:21:40.065Z,23.00
2022-09-21T07:24:12.188Z,25.30
2022-09-21T07:26:41.038Z,22.50
2022-09-21T07:29:09.359Z,25.50
2022-09-21T07:31:38.377Z,24.10
2022-09-21T07:34:09.263Z,24.30
2022-09-21T07:36:37.513Z,22.00
2022-09-21T07:39:06.417Z,22.90
2022-09-21T07:41:34.680Z,22.00
2022-09-21T07:44:03.814Z,20.50
2022-09-21T07:46:32.105Z,21.40
2022-09-21T07:49:00.701Z,19.20
2022-09-21T07:51:29.022Z,22.10
2022-09-21T07:53:57.449Z,20.30
2022-09-21T07:56:26.063Z,18.80
2022-09-21T07:59:06.374Z,18.70
2022-09-21T08:01:40.035Z,16.30
2022-09-21T08:04:10.382Z,24.00
2022-09-21T08:06:40.551Z,15.20
2022-09-21T08:09:08.966Z,19.60
2022-09-21T08:11:38.313Z,18.50
2022-09-21T08:14:06.815Z,19.70
2022-09-21T08:16:35.886Z,16.20
2022-09-21T08:19:07.375Z,18.50
2022-09-21T08:21:36.019Z,17.70
2022-09-21T08:24:04.577Z,17.70
2022-09-21T08:26:33.837Z,15.40
2022-09-21T08:29:02.930Z,18.20
2022-09-21T08:31:31.340Z,18.80
2022-09-21T08:34:00.904Z,19.50
2022-09-21T08:36:29.213Z,23.50
2022-09-21T08:38:57.723Z,22.60
2022-09-21T08:41:41.142Z,20.60
2022-09-21T08:44:16.888Z,25.20
2022-09-21T08:46:49.090Z,27.10
2022-09-21T08:49:24.802Z,28.70
2022-09-21T08:52:00.544Z,26.30
2022-09-21T08:54:44.085Z,24.20
2022-09-21T08:57:14.732Z,26.40
2022-09-21T08:59:50.780Z,26.80
2022-09-21T09:02:34.210Z,27.50
2022-09-21T09:05:27.371Z,25.30
2022-09-21T09:08:33.134Z,24.40
2022-09-21T09:11:01.430Z,23.50
2022-09-21T09:13:51.123Z,26.40
2022-09-21T09:16:50.154Z,23.30
2022-09-21T09:19:33.427Z,25.60
2022-09-21T09:22:07.193Z,22.60
2022-09-21T09:24:42.703Z,20.40
2022-09-21T09:27:34.664Z,20.10
2022-09-21T09:30:12.762Z,17.80
2022-09-21T09:33:08.494Z,19.80
2022-09-21T09:38:34.546Z,15.60
2022-09-21T09:41:28.821Z,14.60
2022-09-21T09:44:06.325Z,11.60
2022-09-21T09:46:37.295Z,11.50
2022-09-21T09:49:44.666Z,13.20
2022-09-21T09:52:15.570Z,13.80
2022-09-21T09:54:44.673Z,10.90
2022-09-21T09:57:13.198Z,16.20
2022-09-21T09:59:44.387Z,10.10
2022-09-21T10:02:25.100Z,9.40
2022-09-21T10:05:35.427Z,11.90
2022-09-21T10:08:04.529Z,8.50
2022-09-21T10:10:38.303Z,10.90
2022-09-21T10:13:21.988Z,9.60
2022-09-21T10:15:56.228Z,12.10
2022-09-21T10:18:29.182Z,12.50
2022-09-21T10:21:06.398Z,8.70
2022-09-21T10:23:36.969Z,10.10
2022-09-21T10:26:12.402Z,9.50
2022-09-21T10:29:01.856Z,11.00
2022-09-21T10:31:31.495Z,10.80
2022-09-21T10:34:16.383Z,10.70
2022-09-21T10:36:55.273Z,11.40
2022-09-21T10:39:28.183Z,9.40
2022-09-21T10:42:13.139Z,10.10
2022-09-21T10:44:47.433Z,12.10
2022-09-21T10:47:18.683Z,11.50
2022-09-21T10:49:56.342Z,8.40
2022-09-21T10:52:34.526Z,9.40
2022-09-21T10:55:03.162Z,12.50
2022-09-21T10:57:33.937Z,8.20
2022-09-21T11:00:24.404Z,9.30
2022-09-21T11:02:55.196Z,9.80
2022-09-21T11:05:38.371Z,8.60
2022-09-21T11:08:16.789Z,8.00
2022-09-21T11:11:13.793Z,8.00
2022-09-21T11:13:56.853Z,7.60
2022-09-21T11:16:35.690Z,11.10
2022-09-21T11:19:39.282Z,8.60
2022-09-21T11:22:40.857Z,9.50
2022-09-21T11:25:31.517Z,10.80
2022-09-21T11:28:34.366Z,10.50
2022-09-21T11:31:11.950Z,8.70
2022-09-21T11:34:08.126Z,9.90
2022-09-21T11:37:19.050Z,11.10
2022-09-21T11:40:15.472Z,8.40
2022-09-21T11:42:55.830Z,11.40
2022-09-21T11:45:50.683Z,10.30
2022-09-21T11:48:28.839Z,9.00
2022-09-21T11:51:21.597Z,10.40
2022-09-21T11:53:58.020Z,8.20
2022-09-21T11:56:59.193Z,11.60
2022-09-21T11:59:34.594Z,9.30
2022-09-21T12:02:25.371Z,11.00
2022-09-21T12:05:02.759Z,6.90
2022-09-21T12:07:43.110Z,8.60
2022-09-21T12:10:31.367Z,11.20
2022-09-21T12:13:02.577Z,8.50
2022-09-21T12:15:41.806Z,8.40
2022-09-21T12:18:14.881Z,8.60
2022-09-21T12:20:46.032Z,9.70
2022-09-21T12:23:22.108Z,8.40
2022-09-21T12:25:54.857Z,8.00
2022-09-21T12:28:32.673Z,7.90
2022-09-21T12:31:12.362Z,9.60
2022-09-21T12:33:48.160Z,7.10
2022-09-21T12:36:22.014Z,9.70
2022-09-21T12:39:08.152Z,8.30
2022-09-21T12:41:48.257Z,8.10
2022-09-21T12:44:36.254Z,8.60
2022-09-21T12:47:11.780Z,7.80
2022-09-21T12:49:48.785Z,9.70
2022-09-21T12:52:26.209Z,11.20
2022-09-21T12:55:00.420Z,9.30
2022-09-21T12:58:14.568Z,8.50
2022-09-21T13:01:11.971Z,11.80
2022-09-21T13:03:56.260Z,10.40
2022-09-21T13:06:43.282Z,8.70
2022-09-21T13:09:15.690Z,9.00
2022-09-21T13:12:09.633Z,8.90
2022-09-21T13:14:44.926Z,8.50
2022-09-21T13:17:29.729Z,9.40
2022-09-21T13:19:57.926Z,9.30
2022-09-21T13:22:31.160Z,9.00
2022-09-21T13:25:08.906Z,10.50
2022-09-21T13:28:15.752Z,12.80
2022-09-21T13:30:45.293Z,9.20
2022-09-21T13:33:19.979Z,7.30
2022-09-21T13:36:04.034Z,8.40
2022-09-21T13:38:57.472Z,10.90
2022-09-21T13:44:43.370Z,11.00
2022-09-21T13:47:13.305Z,12.40
2022-09-21T13:49:58.380Z,8.20
2022-09-21T13:52:40.569Z,13.40
2022-09-21T13:55:28.544Z,15.30
2022-09-21T13:58:04.990Z,29.60
2022-09-21T14:00:52.319Z,14.60
2022-09-21T14:03:25.654Z,11.90
2022-09-21T14:06:01.490Z,9.90
2022-09-21T14:08:58.403Z,11.10
2022-09-21T14:11:50.014Z,11.90
2022-09-21T14:14:21.608Z,9.40
2022-09-21T14:16:55.976Z,9.70
2022-09-21T14:19:27.150Z,12.80
2022-09-21T14:22:10.755Z,9.10
2022-09-21T14:24:49.092Z,10.30
2022-09-21T14:27:33.450Z,12.80
2022-09-21T14:30:08.287Z,16.60
2022-09-21T14:32:47.589Z,9.10
2022-09-21T14:35:21.039Z,8.20
2022-09-21T14:38:13.864Z,9.50
2022-09-21T14:40:48.681Z,8.60
2022-09-21T14:43:28.204Z,11.70
2022-09-21T14:46:17.078Z,11.50
2022-09-21T14:49:18.924Z,9.80
2022-09-21T14:52:24.895Z,12.20
2022-09-21T14:55:18.194Z,10.20
2022-09-21T14:58:00.266Z,9.10
2022-09-21T15:00:59.913Z,9.70
2022-09-21T15:03:47.671Z,9.20
2022-09-21T15:06:48.588Z,9.80
2022-09-21T15:09:57.001Z,11.70
2022-09-21T15:12:42.746Z,9.60
2022-09-21T15:15:32.841Z,12.20
2022-09-21T15:18:03.152Z,18.30
2022-09-21T15:20:32.413Z,11.70
2022-09-21T15:23:00.646Z,7.10
2022-09-21T15:25:33.659Z,8.50
2022-09-21T15:28:03.321Z,5.30
2022-09-21T15:30:33.446Z,6.20
2022-09-21T15:33:02.931Z,5.30
2022-09-21T15:35:33.677Z,8.30
2022-09-21T15:38:01.946Z,11.90
2022-09-21T15:40:47.595Z,13.90
2022-09-21T15:43:21.042Z,18.70
2022-09-21T15:45:54.229Z,15.00
2022-09-21T15:48:24.270Z,9.90
2022-09-21T15:51:04.995Z,11.90
2022-09-21T15:53:45.733Z,18.00
2022-09-21T15:56:26.237Z,21.30
2022-09-21T15:59:09.263Z,20.50
2022-09-21T16:01:45.468Z,13.90
2022-09-21T16:04:18.643Z,11.60
2022-09-21T16:07:00.632Z,14.90
2022-09-21T16:09:39.186Z,13.80
2022-09-21T16:12:42.977Z,8.50
2022-09-21T16:15:33.327Z,8.60
2022-09-21T16:18:05.398Z,10.00
2022-09-21T16:20:48.620Z,8.80
2022-09-21T16:23:25.718Z,8.10
2022-09-21T16:26:01.658Z,10.00
2022-09-21T16:28:36.287Z,7.80
2022-09-21T16:31:40.143Z,10.30
2022-09-21T16:34:37.559Z,8.70
2022-09-21T16:37:30.645Z,12.00
2022-09-21T16:39:59.757Z,10.40
2022-09-21T16:42:32.957Z,14.10
2022-09-21T16:45:09.901Z,21.10
2022-09-21T16:47:38.525Z,32.00
2022-09-21T16:50:12.886Z,26.10
2022-09-21T16:52:41.144Z,24.20
2022-09-21T16:55:10.837Z,19.80
2022-09-21T16:57:39.076Z,19.40
2022-09-21T17:00:20.942Z,18.50
2022-09-21T17:02:49.835Z,17.60
2022-09-21T17:05:20.862Z,16.30
2022-09-21T17:07:59.599Z,14.50
2022-09-21T17:10:33.379Z,15.20
2022-09-21T17:13:04.730Z,20.50
2022-09-21T17:15:33.966Z,28.60
2022-09-21T17:18:04.057Z,37.30
2022-09-21T17:20:41.898Z,39.60
2022-09-21T17:23:10.832Z,42.30
2022-09-21T17:25:39.098Z,29.80
2022-09-21T17:28:26.148Z,22.70
2022-09-21T17:30:55.039Z,18.20
2022-09-21T17:33:26.275Z,17.50
2022-09-21T17:35:56.778Z,15.10
2022-09-21T17:38:25.087Z,15.60
2022-09-21T17:40:53.922Z,14.30
2022-09-21T17:43:50.409Z,14.70
2022-09-21T17:46:18.634Z,14.10
2022-09-21T17:48:47.221Z,16.50
2022-09-21T17:51:35.641Z,15.90
2022-09-21T17:54:04.306Z,16.90
2022-09-21T17:57:09.409Z,16.80
2022-09-21T17:59:38.157Z,17.30
2022-09-21T18:02:26.578Z,18.10
2022-09-21T18:05:02.442Z,16.90
2022-09-21T18:07:31.114Z,17.00
2022-09-21T18:09:59.694Z,16.60
2022-09-21T18:13:04.954Z,17.50
2022-09-21T18:15:50.350Z,15.40
2022-09-21T18:21:40.840Z,19.90
2022-09-21T18:24:22.223Z,16.80
2022-09-21T18:26:52.515Z,15.30
2022-09-21T18:29:38.823Z,16.90
2022-09-21T18:32:29.747Z,15.50
2022-09-21T18:35:04.245Z,14.90
2022-09-21T18:37:50.638Z,14.50
2022-09-21T18:40:46.176Z,14.90
2022-09-21T18:43:37.201Z,13.80
2022-09-21T18:46:22.567Z,15.80
2022-09-21T18:51:57.242Z,12.60
2022-09-21T18:54:27.818Z,12.10
2022-09-21T18:56:57.545Z,16.20
2022-09-21T18:59:31.031Z,16.30
2022-09-21T19:02:00.902Z,14.80
2022-09-21T19:04:30.005Z,14.20
2022-09-21T19:07:39.587Z,13.10
2022-09-21T19:10:40.400Z,12.20
2022-09-21T19:13:15.475Z,14.10
2022-09-21T19:16:11.691Z,14.20
2022-09-21T19:18:52.598Z,13.70
2022-09-21T19:22:05.113Z,12.10
2022-09-21T19:25:04.834Z,13.20
2022-09-21T19:27:43.179Z,13.30
2022-09-21T19:30:14.871Z,11.10
2022-09-21T19:32:50.087Z,12.50
2022-09-21T19:35:26.024Z,12.30
2022-09-21T19:37:56.588Z,15.80
2022-09-21T19:40:27.707Z,15.20
2022-09-21T19:43:24.297Z,12.40
2022-09-21T19:46:25.005Z,19.00
2022-09-21T19:48:59.771Z,15.60
2022-09-21T19:51:34.148Z,17.30
2022-09-21T19:54:22.156Z,18.30
2022-09-21T19:57:20.337Z,15.20
2022-09-21T19:59:49.790Z,16.30
2022-09-21T20:02:45.570Z,15.80
2022-09-21T20:07:55.339Z,12.40
2022-09-21T20:10:24.963Z,12.50
2022-09-21T20:13:14.937Z,13.60
2022-09-21T20:16:21.273Z,12.90
2022-09-21T20:19:20.607Z,14.80
2022-09-21T20:21:57.179Z,14.70
2022-09-21T20:24:32.752Z,17.20
2022-09-21T20:27:03.461Z,16.20
2022-09-21T20:29:31.661Z,16.50
2022-09-21T20:32:01.064Z,16.60
2022-09-21T20:34:29.276Z,15.40
2022-09-21T20:36:57.550Z,15.10
2022-09-21T20:39:25.747Z,18.60
2022-09-21T20:41:54.303Z,16.90
2022-09-21T20:44:22.668Z,17.10
2022-09-21T20:46:50.938Z,17.70
2022-09-21T20:49:19.989Z,15.50
2022-09-21T20:51:48.982Z,19.20
2022-09-21T20:54:17.400Z,18.30
2022-09-21T20:56:46.646Z,18.50
2022-09-21T20:59:14.969Z,18.30
2022-09-21T21:01:43.332Z,20.90
2022-09-21T21:04:13.406Z,21.20
2022-09-21T21:06:41.799Z,20.10
2022-09-21T21:09:10.123Z,21.80
2022-09-21T21:11:38.615Z,21.20
2022-09-21T21:14:07.110Z,21.20
2022-09-21T21:16:35.532Z,21.60
2022-09-21T21:19:04.121Z,20.70
2022-09-21T21:21:33.136Z,17.50
2022-09-21T21:24:20.413Z,21.30
2022-09-21T21:27:01.729Z,21.50
2022-09-21T21:29:32.758Z,21.40
2022-09-21T21:32:01.492Z,21.90
2022-09-21T21:34:29.810Z,18.70
2022-09-21T21:36:59.124Z,19.20
2022-09-21T21:39:27.354Z,29.00
2022-09-21T21:41:55.623Z,18.90
2022-09-21T21:44:24.040Z,21.00
2022-09-21T21:46:53.651Z,22.40
2022-09-21T21:49:21.873Z,22.20
2022-09-21T21:51:51.134Z,25.20
2022-09-21T21:54:23.822Z,22.00
2022-09-21T21:56:57.721Z,22.90
2022-09-21T21:59:25.917Z,20.00
2022-09-21T22:01:54.659Z,21.50
2022-09-21T22:04:27.075Z,25.20
2022-09-21T22:06:56.385Z,25.10
2022-09-21T22:09:24.648Z,24.50
2022-09-21T22:11:52.899Z,21.00
2022-09-21T22:14:21.153Z,27.10
2022-09-21T22:16:50.321Z,22.60
2022-09-21T22:19:18.564Z,21.60
2022-09-21T22:21:53.177Z,22.50
2022-09-21T22:24:22.535Z,20.30
2022-09-21T22:26:51.358Z,27.30
2022-09-21T22:29:19.517Z,24.30
2022-09-21T22:31:50.235Z,22.90
2022-09-21T22:34:20.782Z,23.30
2022-09-21T22:36:50.507Z,22.70
2022-09-21T22:39:18.833Z,21.30
2022-09-21T22:41:47.046Z,22.40
2022-09-21T22:44:16.030Z,24.20
2022-09-21T22:46:44.273Z,22.70
2022-09-21T22:49:12.473Z,21.40
2022-09-21T22:51:40.772Z,21.60
2022-09-21T22:54:09.136Z,23.70
2022-09-21T22:56:37.406Z,24.70
2022-09-21T22:59:06.023Z,23.10
2022-09-21T23:01:39.328Z,25.40
2022-09-21T23:04:10.798Z,23.70
2022-09-21T23:06:42.117Z,23.80
2022-09-21T23:09:17.237Z,27.30
2022-09-21T23:11:48.929Z,21.50
2022-09-21T23:14:17.297Z,22.00
2022-09-21T23:16:46.377Z,19.90
2022-09-21T23:19:17.824Z,20.00
2022-09-21T23:21:52.941Z,25.00
2022-09-21T23:26:51.824Z,25.00
2022-09-21T23:29:20.187Z,26.50
2022-09-21T23:31:48.583Z,23.50
2022-09-21T23:34:17.326Z,19.90
2022-09-21T23:36:45.720Z,21.60
2022-09-21T23:39:15.765Z,22.00
2022-09-21T23:41:44.833Z,19.40
2022-09-21T23:44:13.408Z,23.00
2022-09-21T23:46:42.445Z,20.20
2022-09-21T23:49:11.055Z,19.90
2022-09-21T23:51:39.924Z,22.20
2022-09-21T23:54:08.185Z,21.50
2022-09-21T23:56:37.073Z,20.90
2022-09-21T23:59:05.777Z,19.50
